createdAt,value
2022-11-08T00:01:57.166Z,9.37
2022-11-08T00:06:22.701Z,10.17
2022-11-08T00:10:43.326Z,9.53
2022-11-08T00:14:47.512Z,12.60
2022-11-08T00:18:50.525Z,13.50
2022-11-08T00:22:55.156Z,15.60
2022-11-08T00:26:58.201Z,12.23
2022-11-08T00:31:35.298Z,14.77
2022-11-08T00:35:38.335Z,16.20
2022-11-08T00:39:42.995Z,21.57
2022-11-08T00:43:46.146Z,18.13
2022-11-08T00:47:49.176Z,145.43
2022-11-08T00:51:52.265Z,75.20
2022-11-08T00:56:28.904Z,741.47
2022-11-08T01:00:33.443Z,649.80
2022-11-08T01:04:36.505Z,381.40
2022-11-08T01:08:39.881Z,550.40
2022-11-08T01:12:42.928Z,599.77
2022-11-08T01:16:47.498Z,713.57
2022-11-08T01:21:21.438Z,383.93
2022-11-08T01:25:24.461Z,220.83
2022-11-08T01:29:27.492Z,104.50
2022-11-08T01:33:31.985Z,61.10
2022-11-08T01:38:06.075Z,73.83
2022-11-08T01:42:09.144Z,81.97
2022-11-08T01:46:39.413Z,163.27
2022-11-08T01:50:43.861Z,332.60
2022-11-08T01:55:17.472Z,581.77
2022-11-08T01:59:20.986Z,486.90
2022-11-08T02:03:24.186Z,448.07
2022-11-08T02:08:02.248Z,258.63
2022-11-08T02:12:06.185Z,227.37
2022-11-08T02:16:13.549Z,74.27
2022-11-08T02:20:16.801Z,346.07
2022-11-08T02:24:21.242Z,331.00
2022-11-08T02:28:24.321Z,385.93
2022-11-08T02:32:27.343Z,255.37
2022-11-08T02:36:30.353Z,244.77
2022-11-08T02:40:46.789Z,236.60
2022-11-08T02:45:09.342Z,152.43
2022-11-08T02:49:12.366Z,198.27
2022-11-08T02:53:15.705Z,262.87
2022-11-08T02:57:20.218Z,319.43
2022-11-08T03:01:23.531Z,240.40
2022-11-08T03:05:27.956Z,201.07
2022-11-08T03:09:31.148Z,327.67
2022-11-08T03:13:36.018Z,378.07
2022-11-08T03:18:10.016Z,348.53
2022-11-08T03:22:13.191Z,197.23
2022-11-08T03:26:16.178Z,50.53
2022-11-08T03:30:20.741Z,128.50
2022-11-08T03:34:59.696Z,167.73
2022-11-08T03:39:02.770Z,65.03
2022-11-08T03:43:40.877Z,70.63
2022-11-08T03:48:16.716Z,73.00
2022-11-08T03:52:21.359Z,259.10
2022-11-08T03:56:55.332Z,195.27
2022-11-08T04:01:32.115Z,224.33
2022-11-08T04:06:10.720Z,244.97
2022-11-08T04:10:14.484Z,297.30
2022-11-08T04:15:05.402Z,121.87
2022-11-08T04:19:26.031Z,117.03
2022-11-08T04:23:31.415Z,106.83
2022-11-08T04:27:34.484Z,116.23
2022-11-08T04:32:11.261Z,235.57
2022-11-08T04:36:15.768Z,105.70
2022-11-08T04:40:51.312Z,101.40
2022-11-08T04:45:24.959Z,131.10
2022-11-08T04:49:27.973Z,108.50
2022-11-08T04:54:07.732Z,172.07
2022-11-08T04:58:43.772Z,152.53
2022-11-08T05:02:46.828Z,141.07
2022-11-08T05:06:49.875Z,100.47
2022-11-08T05:10:53.228Z,201.17
2022-11-08T05:14:57.631Z,113.13
2022-11-08T05:19:00.810Z,298.30
2022-11-08T05:23:21.630Z,83.33
2022-11-08T05:27:24.656Z,126.17
2022-11-08T05:32:02.811Z,146.53
2022-11-08T05:36:07.944Z,124.03
2022-11-08T05:40:12.316Z,180.97
2022-11-08T05:44:46.219Z,92.90
2022-11-08T05:49:24.276Z,280.53
2022-11-08T05:53:58.360Z,314.57
2022-11-08T05:58:35.678Z,113.90
2022-11-08T06:03:12.410Z,97.97
2022-11-08T06:07:51.139Z,122.13
2022-11-08T06:11:54.541Z,116.60
2022-11-08T06:16:31.394Z,218.93
2022-11-08T06:21:09.464Z,151.83
2022-11-08T06:25:47.692Z,58.83
2022-11-08T06:30:18.397Z,101.97
2022-11-08T06:34:55.137Z,170.73
2022-11-08T06:39:32.044Z,192.43
2022-11-08T06:44:10.165Z,108.90
2022-11-08T06:48:13.166Z,113.60
2022-11-08T06:52:16.163Z,179.77
2022-11-08T06:56:19.194Z,158.40
2022-11-08T07:00:24.386Z,223.97
2022-11-08T07:04:27.448Z,356.03
2022-11-08T07:09:04.438Z,184.17
2022-11-08T07:13:11.326Z,175.80
2022-11-08T07:17:41.854Z,97.50
2022-11-08T07:22:20.112Z,125.70
2022-11-08T07:26:54.406Z,126.70
2022-11-08T07:31:31.280Z,147.00
2022-11-08T07:36:08.229Z,176.63
2022-11-08T07:40:46.685Z,147.40
2022-11-08T07:45:20.608Z,101.80
2022-11-08T07:49:57.391Z,63.03
2022-11-08T07:54:34.388Z,56.17
2022-11-08T07:59:12.508Z,61.63
2022-11-08T08:03:15.824Z,129.00
2022-11-08T08:07:52.702Z,202.83
2022-11-08T08:12:29.673Z,36.17
2022-11-08T08:16:36.929Z,41.70
2022-11-08T08:20:40.122Z,30.50
2022-11-08T08:24:43.115Z,30.07
2022-11-08T08:29:19.706Z,28.73
2022-11-08T08:33:58.235Z,29.57
2022-11-08T08:38:31.944Z,24.83
2022-11-08T08:42:35.420Z,22.57
2022-11-08T08:46:38.469Z,21.23
2022-11-08T08:50:43.182Z,20.00
2022-11-08T08:55:17.182Z,15.93
2022-11-08T09:04:29.671Z,10.55
2022-11-08T09:09:06.652Z,13.07
2022-11-08T09:13:44.685Z,12.80
2022-11-08T09:18:18.646Z,11.90
2022-11-08T09:22:55.627Z,7.75
2022-11-08T09:27:32.993Z,9.73
2022-11-08T09:31:51.819Z,6.53
2022-11-08T09:36:25.771Z,6.03
2022-11-08T09:41:13.337Z,7.80
2022-11-08T09:45:43.186Z,6.30
2022-11-08T09:49:56.378Z,8.18
2022-11-08T09:54:23.326Z,3.90
2022-11-08T09:59:02.323Z,5.55
2022-11-08T10:03:33.135Z,5.13
2022-11-08T10:07:59.047Z,4.07
2022-11-08T10:12:18.283Z,3.80
2022-11-08T10:16:49.578Z,4.05
2022-11-08T10:21:20.464Z,3.63
2022-11-08T10:25:30.676Z,3.05
2022-11-08T10:29:59.721Z,3.97
2022-11-08T10:34:40.414Z,3.45
2022-11-08T10:39:13.728Z,3.00
2022-11-08T10:43:51.021Z,4.70
2022-11-08T10:48:27.777Z,5.65
2022-11-08T10:53:05.436Z,3.75
2022-11-08T10:57:09.350Z,2.83
2022-11-08T11:01:18.594Z,3.22
2022-11-08T11:05:49.114Z,2.53
2022-11-08T11:10:27.342Z,3.20
2022-11-08T11:14:30.433Z,3.38
2022-11-08T11:19:15.648Z,3.15
2022-11-08T11:23:45.204Z,2.92
2022-11-08T11:28:19.284Z,3.25
2022-11-08T11:32:58.334Z,5.43
2022-11-08T11:37:40.391Z,3.95
2022-11-08T11:42:39.185Z,3.67
2022-11-08T11:46:53.752Z,7.05
2022-11-08T11:51:21.505Z,3.40
2022-11-08T11:55:34.250Z,6.90
2022-11-08T12:00:04.579Z,5.68
2022-11-08T12:04:38.110Z,4.75
2022-11-08T12:09:08.177Z,3.47
2022-11-08T12:13:40.414Z,3.33
2022-11-08T12:18:41.696Z,4.43
2022-11-08T12:23:24.631Z,2.67
2022-11-08T12:28:05.981Z,3.40
2022-11-08T12:32:44.217Z,2.70
2022-11-08T12:37:18.885Z,5.45
2022-11-08T12:41:52.516Z,3.10
2022-11-08T12:46:27.213Z,5.13
2022-11-08T12:51:01.887Z,3.38
2022-11-08T12:55:38.397Z,4.82
2022-11-08T13:00:16.261Z,3.22
2022-11-08T13:05:01.903Z,3.35
2022-11-08T13:09:38.984Z,3.00
2022-11-08T13:14:15.340Z,2.30
2022-11-08T13:18:47.973Z,2.40
2022-11-08T13:23:36.675Z,2.53
2022-11-08T13:28:34.655Z,8.25
2022-11-08T13:33:11.645Z,2.80
2022-11-08T13:37:48.190Z,3.28
2022-11-08T13:42:28.477Z,4.60
2022-11-08T13:47:28.282Z,5.35
2022-11-08T13:51:40.805Z,2.60
2022-11-08T13:55:48.667Z,4.28
2022-11-08T14:00:34.610Z,2.70
2022-11-08T14:05:16.551Z,2.47
2022-11-08T14:09:45.280Z,2.88
2022-11-08T14:14:16.729Z,3.22
2022-11-08T14:18:28.973Z,2.28
2022-11-08T14:23:14.044Z,2.38
2022-11-08T14:28:11.894Z,3.25
2022-11-08T14:32:48.624Z,4.40
2022-11-08T14:37:27.026Z,5.13
2022-11-08T14:42:03.239Z,3.83
2022-11-08T14:46:12.590Z,4.25
2022-11-08T14:50:43.304Z,3.85
2022-11-08T14:55:24.078Z,4.97
2022-11-08T14:59:35.177Z,2.60
2022-11-08T15:04:14.478Z,4.10
2022-11-08T15:08:23.060Z,2.97
2022-11-08T15:12:53.615Z,4.57
2022-11-08T15:17:33.461Z,4.60
2022-11-08T15:21:36.511Z,3.17
2022-11-08T15:25:40.429Z,4.03
2022-11-08T15:30:17.120Z,3.25
2022-11-08T15:34:58.859Z,3.63
2022-11-08T15:39:04.084Z,5.78
2022-11-08T15:43:40.378Z,4.75
2022-11-08T15:48:21.529Z,6.80
2022-11-08T15:52:51.986Z,6.40
2022-11-08T15:56:56.699Z,15.15
2022-11-08T16:01:02.134Z,4.32
2022-11-08T16:05:14.972Z,5.68
2022-11-08T16:09:44.715Z,4.53
2022-11-08T16:13:49.141Z,4.13
2022-11-08T16:17:52.382Z,5.40
2022-11-08T16:22:29.711Z,6.68
2022-11-08T16:27:27.545Z,8.75
2022-11-08T16:31:31.996Z,7.13
2022-11-08T16:36:10.887Z,8.02
2022-11-08T16:40:20.114Z,9.23
2022-11-08T16:44:23.263Z,9.40
2022-11-08T16:48:28.442Z,10.48
2022-11-08T16:53:02.021Z,9.93
2022-11-08T16:57:28.953Z,10.95
2022-11-08T17:01:33.281Z,10.07
2022-11-08T17:05:37.794Z,11.60
2022-11-08T17:10:14.384Z,10.35
2022-11-08T17:14:17.464Z,9.10
2022-11-08T17:18:21.997Z,12.25
2022-11-08T17:22:26.598Z,12.90
2022-11-08T17:27:03.432Z,11.02
2022-11-08T17:31:11.548Z,12.55
2022-11-08T17:35:15.493Z,12.63
2022-11-08T17:39:52.904Z,20.70
2022-11-08T17:43:55.917Z,12.95
2022-11-08T17:47:58.969Z,16.27
2022-11-08T17:52:01.996Z,19.92
2022-11-08T17:56:37.486Z,17.40
2022-11-08T18:00:40.581Z,17.63
2022-11-08T18:04:43.768Z,17.65
2022-11-08T18:08:46.801Z,20.17
2022-11-08T18:12:51.316Z,14.02
2022-11-08T18:16:54.437Z,15.95
2022-11-08T18:20:57.671Z,15.48
2022-11-08T18:25:00.697Z,15.60
2022-11-08T18:29:06.299Z,10.23
2022-11-08T18:33:09.446Z,17.42
2022-11-08T18:37:12.508Z,15.63
2022-11-08T18:41:17.634Z,12.48
2022-11-08T18:45:53.216Z,14.05
2022-11-08T18:49:59.529Z,15.82
2022-11-08T18:54:02.715Z,12.90
2022-11-08T18:58:39.338Z,18.27
2022-11-08T19:02:43.748Z,15.40
2022-11-08T19:06:53.123Z,13.65
2022-11-08T19:10:59.591Z,16.60
2022-11-08T19:15:02.850Z,10.82
2022-11-08T19:19:07.597Z,17.13
2022-11-08T19:23:10.644Z,13.90
2022-11-08T19:27:14.130Z,17.42
2022-11-08T19:31:19.704Z,13.63
2022-11-08T19:35:24.134Z,11.10
2022-11-08T19:39:27.765Z,13.05
2022-11-08T19:43:31.006Z,13.90
2022-11-08T19:47:33.975Z,14.02
2022-11-08T19:51:38.388Z,15.48
2022-11-08T19:55:41.497Z,15.38
2022-11-08T19:59:46.029Z,17.08
2022-11-08T20:03:50.013Z,12.30
2022-11-08T20:07:54.618Z,13.93
2022-11-08T20:12:28.726Z,18.77
2022-11-08T20:16:35.927Z,14.65
2022-11-08T20:20:43.511Z,14.57
2022-11-08T20:24:48.383Z,17.85
2022-11-08T20:28:57.016Z,24.80
2022-11-08T20:33:09.304Z,10.37
2022-11-08T20:37:14.579Z,20.50
2022-11-08T20:41:19.502Z,19.83
2022-11-08T20:45:22.534Z,18.70
2022-11-08T20:49:59.572Z,24.77
2022-11-08T20:54:02.944Z,25.43
2022-11-08T20:58:07.396Z,15.80
2022-11-08T21:02:12.408Z,15.97
2022-11-08T21:06:17.349Z,15.73
2022-11-08T21:10:41.392Z,16.93
2022-11-08T21:14:44.818Z,16.73
2022-11-08T21:18:47.967Z,18.87
2022-11-08T21:22:50.983Z,17.02
2022-11-08T21:26:53.995Z,17.48
2022-11-08T21:30:58.627Z,18.27
2022-11-08T21:35:01.957Z,14.70
2022-11-08T21:39:05.075Z,15.15
2022-11-08T21:43:08.145Z,17.40
2022-11-08T21:47:12.587Z,22.63
2022-11-08T21:51:16.273Z,18.07
2022-11-08T21:55:19.321Z,15.50
2022-11-08T21:59:23.281Z,21.60
2022-11-08T22:03:27.815Z,18.43
2022-11-08T22:07:30.919Z,17.23
2022-11-08T22:12:07.565Z,21.10
2022-11-08T22:16:10.719Z,17.13
2022-11-08T22:20:15.193Z,19.20
2022-11-08T22:24:50.364Z,20.13
2022-11-08T22:28:53.458Z,22.73
2022-11-08T22:32:56.571Z,16.10
2022-11-08T22:37:00.987Z,25.10
2022-11-08T22:41:35.001Z,19.50
2022-11-08T22:45:39.998Z,21.03
2022-11-08T22:50:16.953Z,21.00
2022-11-08T22:54:52.668Z,17.20
2022-11-08T22:58:55.744Z,18.87
2022-11-08T23:02:59.053Z,26.87
2022-11-08T23:07:02.140Z,23.70
2022-11-08T23:11:58.159Z,18.47
2022-11-08T23:16:18.336Z,21.05
2022-11-08T23:20:54.431Z,24.40
2022-11-08T23:24:57.703Z,20.93
2022-11-08T23:29:19.803Z,28.03
2022-11-08T23:33:23.076Z,21.77
2022-11-08T23:37:57.098Z,29.07
2022-11-08T23:42:17.815Z,30.20
2022-11-08T23:46:22.225Z,26.20
2022-11-08T23:50:25.265Z,27.37
2022-11-08T23:55:05.725Z,28.43
2022-11-08T23:59:09.631Z,30.97
